createdAt,value
2017-11-24T00:00:45.685Z,9.85
2017-11-24T00:03:13.800Z,5.85
2017-11-24T00:05:42.784Z,7.97
2017-11-24T00:08:11.462Z,7.00
2017-11-24T00:10:39.476Z,6.28
2017-11-24T00:13:07.441Z,10.10
2017-11-24T00:15:35.333Z,6.47
2017-11-24T00:18:06.051Z,6.03
2017-11-24T00:20:34.822Z,7.07
2017-11-24T00:23:05.219Z,7.57
2017-11-24T00:25:34.282Z,6.15
2017-11-24T00:28:04.016Z,6.05
2017-11-24T00:30:33.352Z,5.95
2017-11-24T00:33:02.257Z,9.00
2017-11-24T00:35:31.484Z,7.03
2017-11-24T00:38:00.351Z,6.28
2017-11-24T00:40:29.061Z,8.45
2017-11-24T00:42:58.698Z,9.98
2017-11-24T00:45:28.461Z,7.37
2017-11-24T00:47:57.832Z,11.05
2017-11-24T00:50:26.446Z,9.15
2017-11-24T00:52:54.958Z,6.28
2017-11-24T00:55:22.892Z,6.28
2017-11-24T00:57:51.656Z,8.05
2017-11-24T01:00:23.717Z,10.70
2017-11-24T01:02:52.981Z,5.90
2017-11-24T01:05:21.637Z,5.82
2017-11-24T01:07:51.320Z,8.90
2017-11-24T01:10:22.686Z,6.18
2017-11-24T01:12:51.443Z,8.68
2017-11-24T01:15:19.453Z,7.72
2017-11-24T01:17:48.194Z,9.15
2017-11-24T01:20:16.155Z,9.73
2017-11-24T01:22:44.824Z,11.50
2017-11-24T01:25:12.862Z,9.30
2017-11-24T01:27:41.535Z,8.48
2017-11-24T01:30:09.495Z,11.20
2017-11-24T01:32:37.506Z,10.23
2017-11-24T01:35:06.215Z,9.60
2017-11-24T01:37:34.102Z,14.05
2017-11-24T01:40:02.050Z,9.73
2017-11-24T01:42:29.942Z,13.45
2017-11-24T01:44:57.881Z,12.18
2017-11-24T01:47:25.793Z,10.98
2017-11-24T01:49:53.764Z,14.60
2017-11-24T01:52:21.679Z,12.23
2017-11-24T01:54:50.492Z,15.85
2017-11-24T01:57:18.458Z,12.30
2017-11-24T01:59:46.474Z,19.67
2017-11-24T02:02:21.402Z,15.95
2017-11-24T02:04:49.364Z,13.45
2017-11-24T02:07:17.297Z,14.85
2017-11-24T02:09:45.273Z,13.43
2017-11-24T02:12:13.185Z,18.75
2017-11-24T02:14:41.933Z,16.40
2017-11-24T02:17:09.834Z,19.75
2017-11-24T02:19:37.841Z,19.52
2017-11-24T02:22:06.571Z,21.25
2017-11-24T02:24:34.609Z,23.35
2017-11-24T02:27:02.576Z,16.77
2017-11-24T02:29:31.397Z,16.62
2017-11-24T02:32:00.478Z,21.67
2017-11-24T02:34:28.502Z,15.38
2017-11-24T02:36:56.487Z,17.50
2017-11-24T02:39:24.524Z,17.65
2017-11-24T02:41:52.508Z,14.32
2017-11-24T02:44:20.557Z,18.08
2017-11-24T02:46:48.548Z,14.65
2017-11-24T02:49:16.609Z,13.15
2017-11-24T02:51:44.615Z,13.00
2017-11-24T02:54:12.603Z,13.62
2017-11-24T02:56:40.579Z,18.87
2017-11-24T02:59:08.636Z,17.60
2017-11-24T03:01:37.366Z,16.05
2017-11-24T03:04:05.390Z,16.75
2017-11-24T03:06:34.058Z,17.50
2017-11-24T03:09:01.998Z,20.35
2017-11-24T03:11:29.906Z,12.93
2017-11-24T03:13:58.019Z,13.38
2017-11-24T03:16:25.922Z,19.58
2017-11-24T03:18:53.950Z,12.50
2017-11-24T03:21:21.883Z,14.15
2017-11-24T03:23:50.043Z,10.82
2017-11-24T03:26:17.956Z,10.43
2017-11-24T03:28:46.696Z,13.85
2017-11-24T03:31:14.588Z,9.77
2017-11-24T03:33:42.559Z,8.98
2017-11-24T03:36:10.511Z,9.43
2017-11-24T03:38:38.462Z,10.63
2017-11-24T03:41:06.375Z,11.27
2017-11-24T03:43:34.330Z,16.27
2017-11-24T03:46:02.299Z,10.50
2017-11-24T03:48:30.247Z,9.75
2017-11-24T03:50:58.140Z,9.68
2017-11-24T03:53:26.326Z,9.73
2017-11-24T03:55:54.275Z,9.13
2017-11-24T03:58:22.182Z,10.20
2017-11-24T04:00:50.152Z,8.60
2017-11-24T04:03:18.823Z,8.93
2017-11-24T04:05:46.824Z,10.65
2017-11-24T04:08:14.727Z,13.65
2017-11-24T04:10:42.700Z,13.10
2017-11-24T04:13:10.619Z,9.00
2017-11-24T04:15:38.586Z,9.23
2017-11-24T04:18:07.296Z,9.65
2017-11-24T04:20:35.292Z,14.75
2017-11-24T04:23:03.454Z,10.52
2017-11-24T04:25:31.431Z,10.65
2017-11-24T04:27:59.363Z,12.07
2017-11-24T04:30:27.330Z,8.55
2017-11-24T04:32:56.044Z,12.65
2017-11-24T04:35:23.996Z,10.73
2017-11-24T04:37:51.924Z,9.98
2017-11-24T04:40:24.173Z,8.40
2017-11-24T04:42:56.896Z,9.02
2017-11-24T04:45:29.093Z,10.40
2017-11-24T04:48:01.218Z,14.57
2017-11-24T04:50:33.131Z,10.57
2017-11-24T04:53:05.414Z,8.88
2017-11-24T04:55:37.351Z,10.43
2017-11-24T04:58:10.390Z,8.90
2017-11-24T05:00:41.993Z,8.80
2017-11-24T05:03:15.611Z,8.15
2017-11-24T05:05:47.923Z,14.43
2017-11-24T05:08:19.954Z,21.12
2017-11-24T05:10:53.512Z,10.63
2017-11-24T05:13:26.236Z,12.18
2017-11-24T05:15:58.482Z,13.20
2017-11-24T05:18:30.764Z,10.25
2017-11-24T05:21:03.667Z,9.82
2017-11-24T05:23:35.440Z,16.77
2017-11-24T05:26:06.804Z,15.32
2017-11-24T05:28:38.358Z,10.98
2017-11-24T05:31:11.061Z,8.95
2017-11-24T05:33:44.162Z,11.07
2017-11-24T05:36:13.331Z,14.82
2017-11-24T05:38:42.242Z,8.77
2017-11-24T05:41:11.421Z,9.32
2017-11-24T05:43:40.492Z,13.05
2017-11-24T05:46:08.512Z,12.73
2017-11-24T05:48:36.399Z,11.10
2017-11-24T05:51:05.167Z,12.10
2017-11-24T05:53:33.138Z,11.32
2017-11-24T05:56:01.071Z,8.25
2017-11-24T05:58:28.959Z,6.47
2017-11-24T06:00:56.968Z,14.80
2017-11-24T06:03:25.615Z,8.25
2017-11-24T06:05:53.614Z,8.88
2017-11-24T06:08:22.436Z,10.02
2017-11-24T06:10:50.404Z,7.22
2017-11-24T06:13:18.343Z,6.70
2017-11-24T06:15:47.073Z,8.95
2017-11-24T06:18:15.067Z,7.93
2017-11-24T06:20:43.051Z,9.57
2017-11-24T06:23:13.110Z,7.10
2017-11-24T06:25:41.210Z,10.18
2017-11-24T06:28:14.788Z,7.85
2017-11-24T06:30:44.608Z,8.82
2017-11-24T06:33:12.598Z,7.65
2017-11-24T06:35:40.744Z,12.00
2017-11-24T06:38:08.721Z,9.45
2017-11-24T06:40:36.762Z,8.93
2017-11-24T06:43:07.835Z,12.70
2017-11-24T06:45:35.855Z,16.65
2017-11-24T06:48:03.972Z,12.07
2017-11-24T06:50:32.193Z,6.10
2017-11-24T06:53:00.196Z,13.05
2017-11-24T06:55:28.918Z,8.50
2017-11-24T06:57:56.853Z,7.53
2017-11-24T07:00:24.816Z,12.52
2017-11-24T07:02:52.816Z,8.40
2017-11-24T07:05:20.783Z,13.43
2017-11-24T07:07:48.881Z,11.80
2017-11-24T07:10:16.929Z,9.90
2017-11-24T07:12:45.173Z,9.88
2017-11-24T07:15:13.204Z,8.40
2017-11-24T07:17:41.261Z,12.18
2017-11-24T07:20:09.348Z,10.60
2017-11-24T07:22:37.506Z,12.05
2017-11-24T07:25:05.621Z,13.10
2017-11-24T07:27:34.672Z,10.32
2017-11-24T07:30:02.834Z,11.40
2017-11-24T07:32:30.876Z,8.55
2017-11-24T07:34:58.826Z,9.60
2017-11-24T07:37:26.907Z,8.68
2017-11-24T07:39:55.022Z,9.88
2017-11-24T07:42:23.223Z,10.48
2017-11-24T07:44:51.365Z,14.32
2017-11-24T07:47:19.594Z,8.18
2017-11-24T07:49:48.358Z,7.53
2017-11-24T07:52:16.543Z,7.87
2017-11-24T07:54:44.626Z,10.10
2017-11-24T07:57:12.823Z,8.70
2017-11-24T07:59:40.836Z,11.30
2017-11-24T08:02:09.026Z,7.15
2017-11-24T08:04:37.021Z,9.57
2017-11-24T08:07:05.285Z,6.45
2017-11-24T08:09:33.363Z,8.65
2017-11-24T08:12:01.656Z,7.60
2017-11-24T08:14:30.569Z,13.20
2017-11-24T08:16:59.389Z,7.50
2017-11-24T08:19:27.459Z,10.48
2017-11-24T08:21:55.521Z,8.68
2017-11-24T08:24:23.611Z,13.50
2017-11-24T08:26:51.635Z,8.18
2017-11-24T08:29:19.834Z,5.25
2017-11-24T08:31:48.056Z,6.53
2017-11-24T08:34:16.194Z,5.97
2017-11-24T08:36:44.259Z,8.85
2017-11-24T08:39:12.354Z,5.50
2017-11-24T08:41:40.402Z,4.43
2017-11-24T08:44:09.416Z,7.00
2017-11-24T08:49:47.577Z,4.40
2017-11-24T08:52:15.871Z,4.87
2017-11-24T08:54:44.070Z,5.22
2017-11-24T08:57:12.052Z,3.90
2017-11-24T08:59:40.173Z,8.57
2017-11-24T09:02:10.036Z,4.30
2017-11-24T09:04:38.501Z,3.85
2017-11-24T09:07:06.567Z,4.65
2017-11-24T09:09:35.341Z,8.27
2017-11-24T09:12:03.798Z,6.62
2017-11-24T09:14:31.929Z,5.50
2017-11-24T09:17:00.337Z,7.72
2017-11-24T09:19:28.663Z,6.20
2017-11-24T09:21:56.833Z,8.85
2017-11-24T09:24:26.117Z,6.20
2017-11-24T09:26:54.610Z,7.75
2017-11-24T09:29:23.523Z,6.22
2017-11-24T09:31:53.785Z,7.03
2017-11-24T09:34:22.897Z,9.80
2017-11-24T09:36:51.529Z,8.95
2017-11-24T09:39:27.637Z,9.38
2017-11-24T09:41:56.291Z,10.43
2017-11-24T09:44:27.293Z,12.70
2017-11-24T09:46:56.075Z,10.23
2017-11-24T09:49:25.365Z,9.60
2017-11-24T09:51:53.485Z,7.00
2017-11-24T09:54:21.576Z,9.05
2017-11-24T09:56:50.603Z,8.80
2017-11-24T09:59:24.056Z,7.25
2017-11-24T10:01:52.868Z,6.40
2017-11-24T10:04:21.111Z,7.25
2017-11-24T10:06:49.263Z,6.70
2017-11-24T10:09:17.591Z,5.45
2017-11-24T10:11:45.740Z,5.60
2017-11-24T10:14:14.060Z,5.35
2017-11-24T10:16:42.488Z,5.95
2017-11-24T10:19:10.969Z,9.20
2017-11-24T10:21:44.988Z,11.90
2017-11-24T10:24:13.350Z,7.28
2017-11-24T10:26:41.734Z,4.60
2017-11-24T10:29:10.871Z,4.43
2017-11-24T10:31:39.290Z,5.30
2017-11-24T10:34:11.601Z,5.28
2017-11-24T10:36:39.813Z,3.58
2017-11-24T10:39:07.934Z,5.87
2017-11-24T10:41:36.011Z,3.40
2017-11-24T10:44:04.351Z,4.10
2017-11-24T10:46:39.798Z,4.05
2017-11-24T10:49:12.498Z,3.10
2017-11-24T10:51:46.337Z,3.10
2017-11-24T10:54:15.119Z,2.53
2017-11-24T10:56:44.091Z,2.85
2017-11-24T10:59:12.166Z,2.70
